Track Кузьминых Дарья

Time Latitude Longitude Accuracy (66% radius in meters) Altitude (meters) Speed (km/hour) Bearing (degrees) Battery (%) GPS flag
09:31:29 60.370973 29.556298 6 80 0 26.174774169922 61 1 delete
09:31:19 60.370961 29.556334 8 89 0 124.21785736084 61 1 delete
09:31:16 60.370909 29.556366 8 91 0 234.38334655762 61 1 delete
09:31:03 60.370886 29.556384 16 86 0 179.77874755859 61 1 delete
09:30:51 60.370886 29.556384 12 74 0 179.77874755859 61 1 delete
09:30:39 60.370933 29.556361 16 79 0 1.3932710886002 61 1 delete
09:30:27 60.370939 29.556365 12 78 0 1.3932710886002 61 1 delete
09:30:15 60.370939 29.556365 12 78 0 1.3932710886002 61 1 delete
09:30:03 60.370913 29.556373 12 69 0 216.76612854004 61 1 delete
09:29:56 60.370911 29.556377 12 68 0.38295409083366 168.29594421387 61 1 delete
09:29:51 60.370939 29.556346 8 69 0 320.67834472656 61 1 delete
09:29:38 60.370938 29.556294 12 63 0 98.418342590332 61 1 delete
09:29:25 60.370920 29.556286 8 70 0 187.44094848633 61 1 delete
09:29:13 60.370900 29.556266 6 74 0 192.74298095703 61 1 delete
09:28:59 60.370904 29.556263 8 73 0 192.74298095703 61 1 delete
09:28:45 60.370926 29.556264 12 53 0 343.88702392578 61 1 delete
09:28:33 60.370936 29.556277 6 70 0 4.0665774345398 61 1 delete
09:28:21 60.370938 29.556260 12 75 0 4.0665774345398 61 1 delete
09:28:09 60.370938 29.556260 6 68 0 4.0665774345398 61 1 delete
09:27:57 60.370938 29.556260 8 67 0 4.0665774345398 61 1 delete
09:27:45 60.370938 29.556259 12 79 0 4.0665774345398 61 1 delete
09:27:33 60.370938 29.556259 12 78 0 4.0665774345398 61 1 delete
09:27:21 60.370938 29.556259 6 71 0 4.0665774345398 61 1 delete
09:27:09 60.370938 29.556259 12 74 0 4.0665774345398 61 1 delete
09:26:57 60.370938 29.556259 8 70 0 4.0665774345398 61 1 delete
09:26:44 60.370938 29.556259 8 63 0 4.0665774345398 61 1 delete
09:26:32 60.370938 29.556259 6 76 0 4.0665774345398 61 1 delete
09:26:20 60.370938 29.556259 12 70 0 4.0665774345398 61 1 delete
09:26:08 60.370938 29.556259 12 64 0 4.0665774345398 61 1 delete
09:25:55 60.370938 29.556259 12 70 0 4.0665774345398 61 1 delete
09:25:44 60.370935 29.556294 12 70 0 4.0665774345398 61 1 delete
09:25:43 60.370937 29.556300 12 70 0 4.0665774345398 61 1 delete
09:25:30 60.370943 29.556381 12 82 0 12.146060943604 61 1 delete
09:25:18 60.370945 29.556428 12 75 0 136.27099609375 61 1 delete
09:25:07 60.370945 29.556428 24 82 0 136.27099609375 61 1 delete
09:24:55 60.370936 29.556425 8 78 0 199.41342163086 61 1 delete
09:24:47 60.370958 29.556377 8 85 0.047446742653847 199.41342163086 61 1 delete
09:24:42 60.370967 29.556351 16 81 0 338.67596435547 61 1 delete
09:24:31 60.370961 29.556347 8 72 0 129.4116973877 61 1 delete
09:24:19 60.370989 29.556341 8 94 0 222.53071594238 61 1 delete
09:24:06 60.371000 29.556372 6 78 0.34638702869415 229.09669494629 61 1 delete
09:24:04 60.371005 29.556361 6 74 0 0.24226479232311 61 1 delete
09:23:57 60.370958 29.556345 8 82 0 0.24226479232311 61 1 delete
09:23:53 60.370924 29.556344 8 83 0 349.57385253906 61 1 delete
09:23:50 60.370912 29.556356 12 61 0 349.57385253906 61 1 delete
09:23:41 60.370890 29.556446 6 43 0 358.57650756836 61 1 delete
09:23:29 60.370914 29.556449 8 47 0 175.9750213623 61 1 delete
09:23:16 60.370937 29.556398 8 43 0 191.88778686523 61 1 delete
09:23:08 60.370953 29.556386 8 37 0.26965290307999 23.917818069458 61 1 delete
09:23:03 60.370968 29.556332 6 41 0 163.05908203125 61 1 delete